sensor_id;sensor_type;location;lat;lon;timestamp;P1;durP1;ratioP1;P2;durP2;ratioP2
71253;SDS011;59019;47.638;18.966;2023-09-18T00:00:14;17.92;;;12.70;;
71253;SDS011;59019;47.638;18.966;2023-09-18T00:02:40;16.00;;;12.83;;
71253;SDS011;59019;47.638;18.966;2023-09-18T00:05:05;17.17;;;13.17;;
71253;SDS011;59019;47.638;18.966;2023-09-18T00:07:31;18.63;;;12.88;;
71253;SDS011;59019;47.638;18.966;2023-09-18T00:09:56;17.10;;;12.80;;
71253;SDS011;59019;47.638;18.966;2023-09-18T00:12:22;17.33;;;12.90;;
71253;SDS011;59019;47.638;18.966;2023-09-18T00:14:50;17.50;;;13.30;;
71253;SDS011;59019;47.638;18.966;2023-09-18T00:17:16;16.90;;;12.60;;
71253;SDS011;59019;47.638;18.966;2023-09-18T00:19:42;15.38;;;11.88;;
71253;SDS011;59019;47.638;18.966;2023-09-18T00:22:08;15.63;;;12.25;;
71253;SDS011;59019;47.638;18.966;2023-09-18T00:24:34;16.80;;;12.48;;
71253;SDS011;59019;47.638;18.966;2023-09-18T00:26:59;17.50;;;12.70;;
71253;SDS011;59019;47.638;18.966;2023-09-18T00:29:25;18.80;;;13.30;;
71253;SDS011;59019;47.638;18.966;2023-09-18T00:31:50;16.00;;;12.33;;
71253;SDS011;59019;47.638;18.966;2023-09-18T00:34:16;17.20;;;12.13;;
71253;SDS011;59019;47.638;18.966;2023-09-18T00:36:41;17.00;;;12.98;;
71253;SDS011;59019;47.638;18.966;2023-09-18T00:39:06;16.90;;;12.00;;
71253;SDS011;59019;47.638;18.966;2023-09-18T00:41:33;16.08;;;12.02;;
71253;SDS011;59019;47.638;18.966;2023-09-18T00:44:00;16.00;;;11.95;;
71253;SDS011;59019;47.638;18.966;2023-09-18T00:46:25;15.53;;;11.90;;
71253;SDS011;59019;47.638;18.966;2023-09-18T00:48:52;16.95;;;12.20;;
71253;SDS011;59019;47.638;18.966;2023-09-18T00:51:19;16.33;;;11.60;;
71253;SDS011;59019;47.638;18.966;2023-09-18T00:53:45;15.27;;;11.65;;
71253;SDS011;59019;47.638;18.966;2023-09-18T00:56:16;15.73;;;11.43;;
71253;SDS011;59019;47.638;18.966;2023-09-18T00:58:43;16.37;;;11.90;;
71253;SDS011;59019;47.638;18.966;2023-09-18T01:01:10;15.10;;;11.13;;
71253;SDS011;59019;47.638;18.966;2023-09-18T01:03:37;16.15;;;11.55;;
71253;SDS011;59019;47.638;18.966;2023-09-18T01:06:02;15.38;;;11.23;;
71253;SDS011;59019;47.638;18.966;2023-09-18T01:08:28;15.10;;;11.23;;
71253;SDS011;59019;47.638;18.966;2023-09-18T01:11:14;14.10;;;10.52;;
71253;SDS011;59019;47.638;18.966;2023-09-18T01:14:17;14.35;;;11.00;;
71253;SDS011;59019;47.638;18.966;2023-09-18T01:16:58;15.30;;;11.57;;
71253;SDS011;59019;47.638;18.966;2023-09-18T01:19:39;15.15;;;11.48;;
71253;SDS011;59019;47.638;18.966;2023-09-18T01:22:09;15.35;;;11.77;;
71253;SDS011;59019;47.638;18.966;2023-09-18T01:24:36;17.63;;;12.15;;
71253;SDS011;59019;47.638;18.966;2023-09-18T01:27:03;14.45;;;10.95;;
71253;SDS011;59019;47.638;18.966;2023-09-18T01:29:29;15.50;;;11.50;;
71253;SDS011;59019;47.638;18.966;2023-09-18T01:31:55;15.13;;;11.10;;
71253;SDS011;59019;47.638;18.966;2023-09-18T01:34:23;15.05;;;10.88;;
71253;SDS011;59019;47.638;18.966;2023-09-18T01:36:53;16.60;;;11.00;;
71253;SDS011;59019;47.638;18.966;2023-09-18T01:39:22;14.77;;;10.85;;
71253;SDS011;59019;47.638;18.966;2023-09-18T01:41:48;13.98;;;10.98;;
71253;SDS011;59019;47.638;18.966;2023-09-18T01:44:15;13.57;;;10.25;;
71253;SDS011;59019;47.638;18.966;2023-09-18T01:46:40;14.27;;;10.33;;
71253;SDS011;59019;47.638;18.966;2023-09-18T01:49:11;14.45;;;10.27;;
71253;SDS011;59019;47.638;18.966;2023-09-18T01:51:36;14.27;;;10.32;;
71253;SDS011;59019;47.638;18.966;2023-09-18T01:54:02;14.37;;;10.23;;
71253;SDS011;59019;47.638;18.966;2023-09-18T01:56:28;13.18;;;10.13;;
71253;SDS011;59019;47.638;18.966;2023-09-18T01:58:54;15.45;;;10.60;;
71253;SDS011;59019;47.638;18.966;2023-09-18T02:01:19;15.13;;;10.20;;
71253;SDS011;59019;47.638;18.966;2023-09-18T02:03:45;14.00;;;10.13;;
71253;SDS011;59019;47.638;18.966;2023-09-18T02:06:12;13.83;;;9.70;;
71253;SDS011;59019;47.638;18.966;2023-09-18T02:08:37;12.57;;;9.43;;
71253;SDS011;59019;47.638;18.966;2023-09-18T02:11:03;13.07;;;9.77;;
71253;SDS011;59019;47.638;18.966;2023-09-18T02:13:29;12.68;;;9.32;;
71253;SDS011;59019;47.638;18.966;2023-09-18T02:15:55;14.70;;;10.40;;
71253;SDS011;59019;47.638;18.966;2023-09-18T02:18:21;13.27;;;9.43;;
71253;SDS011;59019;47.638;18.966;2023-09-18T02:20:47;12.47;;;9.80;;
71253;SDS011;59019;47.638;18.966;2023-09-18T02:23:14;14.23;;;10.38;;
71253;SDS011;59019;47.638;18.966;2023-09-18T02:25:40;13.50;;;10.00;;
71253;SDS011;59019;47.638;18.966;2023-09-18T02:28:06;13.35;;;10.02;;
71253;SDS011;59019;47.638;18.966;2023-09-18T02:30:32;14.03;;;10.07;;
71253;SDS011;59019;47.638;18.966;2023-09-18T02:32:58;14.77;;;10.55;;
71253;SDS011;59019;47.638;18.966;2023-09-18T02:35:24;13.48;;;9.88;;
71253;SDS011;59019;47.638;18.966;2023-09-18T02:37:50;14.73;;;9.60;;
71253;SDS011;59019;47.638;18.966;2023-09-18T02:40:16;14.20;;;9.82;;
71253;SDS011;59019;47.638;18.966;2023-09-18T02:42:41;13.32;;;9.30;;
71253;SDS011;59019;47.638;18.966;2023-09-18T02:45:07;13.43;;;9.33;;
71253;SDS011;59019;47.638;18.966;2023-09-18T02:47:34;14.15;;;9.68;;
71253;SDS011;59019;47.638;18.966;2023-09-18T02:50:02;14.47;;;9.70;;
71253;SDS011;59019;47.638;18.966;2023-09-18T02:52:29;13.68;;;10.20;;
71253;SDS011;59019;47.638;18.966;2023-09-18T02:54:54;14.90;;;10.20;;
71253;SDS011;59019;47.638;18.966;2023-09-18T02:57:20;14.63;;;10.50;;
71253;SDS011;59019;47.638;18.966;2023-09-18T02:59:46;15.18;;;10.43;;
71253;SDS011;59019;47.638;18.966;2023-09-18T03:02:11;14.90;;;10.27;;
71253;SDS011;59019;47.638;18.966;2023-09-18T03:04:37;13.37;;;9.97;;
71253;SDS011;59019;47.638;18.966;2023-09-18T03:07:02;14.60;;;10.40;;
71253;SDS011;59019;47.638;18.966;2023-09-18T03:09:29;15.10;;;10.80;;
71253;SDS011;59019;47.638;18.966;2023-09-18T03:11:54;14.75;;;10.73;;
71253;SDS011;59019;47.638;18.966;2023-09-18T03:14:20;13.55;;;10.02;;
71253;SDS011;59019;47.638;18.966;2023-09-18T03:16:45;13.67;;;10.30;;
71253;SDS011;59019;47.638;18.966;2023-09-18T03:19:11;14.37;;;10.27;;
71253;SDS011;59019;47.638;18.966;2023-09-18T03:21:37;14.30;;;10.02;;
71253;SDS011;59019;47.638;18.966;2023-09-18T03:24:03;15.00;;;10.27;;
71253;SDS011;59019;47.638;18.966;2023-09-18T03:26:29;15.20;;;10.20;;
71253;SDS011;59019;47.638;18.966;2023-09-18T03:28:55;14.80;;;10.30;;
71253;SDS011;59019;47.638;18.966;2023-09-18T03:31:20;14.83;;;10.07;;
71253;SDS011;59019;47.638;18.966;2023-09-18T03:33:46;13.47;;;9.80;;
71253;SDS011;59019;47.638;18.966;2023-09-18T03:36:11;15.38;;;10.30;;
71253;SDS011;59019;47.638;18.966;2023-09-18T03:38:37;14.13;;;9.97;;
71253;SDS011;59019;47.638;18.966;2023-09-18T03:41:02;14.47;;;9.90;;
71253;SDS011;59019;47.638;18.966;2023-09-18T03:43:28;14.10;;;9.90;;
71253;SDS011;59019;47.638;18.966;2023-09-18T03:45:53;14.27;;;9.57;;
71253;SDS011;59019;47.638;18.966;2023-09-18T03:48:19;13.50;;;9.57;;
71253;SDS011;59019;47.638;18.966;2023-09-18T03:50:47;14.97;;;10.63;;
71253;SDS011;59019;47.638;18.966;2023-09-18T03:53:12;15.40;;;10.20;;
71253;SDS011;59019;47.638;18.966;2023-09-18T03:55:38;13.23;;;9.32;;
71253;SDS011;59019;47.638;18.966;2023-09-18T03:58:04;15.07;;;10.40;;
71253;SDS011;59019;47.638;18.966;2023-09-18T04:00:30;15.98;;;9.85;;
71253;SDS011;59019;47.638;18.966;2023-09-18T04:02:55;14.07;;;9.40;;
71253;SDS011;59019;47.638;18.966;2023-09-18T04:05:21;14.70;;;10.47;;
71253;SDS011;59019;47.638;18.966;2023-09-18T04:07:47;13.30;;;9.50;;
71253;SDS011;59019;47.638;18.966;2023-09-18T04:10:13;13.60;;;9.57;;
71253;SDS011;59019;47.638;18.966;2023-09-18T04:12:47;15.17;;;11.37;;
71253;SDS011;59019;47.638;18.966;2023-09-18T04:15:15;13.93;;;9.90;;
71253;SDS011;59019;47.638;18.966;2023-09-18T04:17:43;14.07;;;9.80;;
71253;SDS011;59019;47.638;18.966;2023-09-18T04:20:09;14.95;;;9.55;;
71253;SDS011;59019;47.638;18.966;2023-09-18T04:22:41;14.40;;;9.90;;
71253;SDS011;59019;47.638;18.966;2023-09-18T04:25:15;14.25;;;9.43;;
71253;SDS011;59019;47.638;18.966;2023-09-18T04:27:41;13.88;;;9.52;;
71253;SDS011;59019;47.638;18.966;2023-09-18T04:30:07;13.83;;;9.33;;
71253;SDS011;59019;47.638;18.966;2023-09-18T04:32:35;13.65;;;9.77;;
71253;SDS011;59019;47.638;18.966;2023-09-18T04:35:05;15.00;;;9.98;;
71253;SDS011;59019;47.638;18.966;2023-09-18T04:37:31;15.32;;;9.35;;
71253;SDS011;59019;47.638;18.966;2023-09-18T04:40:00;15.07;;;9.70;;
71253;SDS011;59019;47.638;18.966;2023-09-18T04:42:26;14.03;;;10.03;;
71253;SDS011;59019;47.638;18.966;2023-09-18T04:44:52;14.48;;;10.00;;
71253;SDS011;59019;47.638;18.966;2023-09-18T04:47:17;16.00;;;9.73;;
71253;SDS011;59019;47.638;18.966;2023-09-18T04:49:43;13.00;;;9.67;;
71253;SDS011;59019;47.638;18.966;2023-09-18T04:52:12;15.47;;;9.80;;
71253;SDS011;59019;47.638;18.966;2023-09-18T04:54:38;14.17;;;10.07;;
71253;SDS011;59019;47.638;18.966;2023-09-18T04:57:03;14.40;;;10.10;;
71253;SDS011;59019;47.638;18.966;2023-09-18T04:59:30;13.77;;;10.10;;
71253;SDS011;59019;47.638;18.966;2023-09-18T05:01:59;13.60;;;9.73;;
71253;SDS011;59019;47.638;18.966;2023-09-18T05:04:26;15.88;;;9.75;;
71253;SDS011;59019;47.638;18.966;2023-09-18T05:06:51;13.20;;;10.07;;
71253;SDS011;59019;47.638;18.966;2023-09-18T05:09:17;14.40;;;9.63;;
71253;SDS011;59019;47.638;18.966;2023-09-18T05:11:42;13.65;;;9.57;;
71253;SDS011;59019;47.638;18.966;2023-09-18T05:14:08;13.07;;;9.30;;
71253;SDS011;59019;47.638;18.966;2023-09-18T05:16:33;13.60;;;9.20;;
71253;SDS011;59019;47.638;18.966;2023-09-18T05:18:59;13.37;;;9.80;;
71253;SDS011;59019;47.638;18.966;2023-09-18T05:21:24;14.40;;;9.67;;
71253;SDS011;59019;47.638;18.966;2023-09-18T05:23:51;13.63;;;9.48;;
71253;SDS011;59019;47.638;18.966;2023-09-18T05:26:18;14.50;;;9.20;;
71253;SDS011;59019;47.638;18.966;2023-09-18T05:28:44;13.45;;;9.10;;
71253;SDS011;59019;47.638;18.966;2023-09-18T05:31:09;12.43;;;8.90;;
71253;SDS011;59019;47.638;18.966;2023-09-18T05:33:35;12.53;;;9.23;;
71253;SDS011;59019;47.638;18.966;2023-09-18T05:36:00;15.07;;;9.30;;
71253;SDS011;59019;47.638;18.966;2023-09-18T05:38:26;13.50;;;9.53;;
71253;SDS011;59019;47.638;18.966;2023-09-18T05:40:51;14.00;;;9.93;;
71253;SDS011;59019;47.638;18.966;2023-09-18T05:43:17;16.27;;;10.50;;
71253;SDS011;59019;47.638;18.966;2023-09-18T05:45:43;13.17;;;9.80;;
71253;SDS011;59019;47.638;18.966;2023-09-18T05:48:08;13.80;;;9.80;;
71253;SDS011;59019;47.638;18.966;2023-09-18T05:50:35;13.50;;;9.47;;
71253;SDS011;59019;47.638;18.966;2023-09-18T05:53:01;14.43;;;10.00;;
71253;SDS011;59019;47.638;18.966;2023-09-18T05:55:28;16.47;;;11.40;;
71253;SDS011;59019;47.638;18.966;2023-09-18T05:57:57;17.52;;;12.13;;
71253;SDS011;59019;47.638;18.966;2023-09-18T06:00:26;16.05;;;10.70;;
71253;SDS011;59019;47.638;18.966;2023-09-18T06:02:52;15.10;;;10.52;;
71253;SDS011;59019;47.638;18.966;2023-09-18T06:05:17;15.47;;;11.10;;
71253;SDS011;59019;47.638;18.966;2023-09-18T06:07:50;17.23;;;11.93;;
71253;SDS011;59019;47.638;18.966;2023-09-18T06:10:16;16.15;;;11.23;;
71253;SDS011;59019;47.638;18.966;2023-09-18T06:12:43;17.85;;;11.35;;
71253;SDS011;59019;47.638;18.966;2023-09-18T06:15:10;17.33;;;11.80;;
71253;SDS011;59019;47.638;18.966;2023-09-18T06:17:37;17.85;;;11.73;;
71253;SDS011;59019;47.638;18.966;2023-09-18T06:20:04;17.60;;;11.33;;
71253;SDS011;59019;47.638;18.966;2023-09-18T06:22:33;15.98;;;11.00;;
71253;SDS011;59019;47.638;18.966;2023-09-18T06:24:58;15.33;;;11.00;;
71253;SDS011;59019;47.638;18.966;2023-09-18T06:27:24;14.97;;;10.10;;
71253;SDS011;59019;47.638;18.966;2023-09-18T06:29:49;14.43;;;10.67;;
71253;SDS011;59019;47.638;18.966;2023-09-18T06:32:15;15.67;;;10.93;;
71253;SDS011;59019;47.638;18.966;2023-09-18T06:34:40;16.10;;;10.57;;
71253;SDS011;59019;47.638;18.966;2023-09-18T06:37:09;14.43;;;10.20;;
71253;SDS011;59019;47.638;18.966;2023-09-18T06:39:37;14.50;;;9.88;;
71253;SDS011;59019;47.638;18.966;2023-09-18T06:42:03;14.27;;;10.00;;
71253;SDS011;59019;47.638;18.966;2023-09-18T06:44:29;14.77;;;9.77;;
71253;SDS011;59019;47.638;18.966;2023-09-18T06:46:55;13.10;;;10.20;;
71253;SDS011;59019;47.638;18.966;2023-09-18T06:49:20;15.52;;;10.35;;
71253;SDS011;59019;47.638;18.966;2023-09-18T06:51:46;13.87;;;10.50;;
71253;SDS011;59019;47.638;18.966;2023-09-18T06:54:12;17.00;;;11.07;;
71253;SDS011;59019;47.638;18.966;2023-09-18T06:56:38;15.82;;;10.45;;
71253;SDS011;59019;47.638;18.966;2023-09-18T06:59:04;13.97;;;9.93;;
71253;SDS011;59019;47.638;18.966;2023-09-18T07:01:29;14.98;;;10.10;;
71253;SDS011;59019;47.638;18.966;2023-09-18T07:03:56;14.20;;;10.43;;
71253;SDS011;59019;47.638;18.966;2023-09-18T07:06:24;15.27;;;10.50;;
71253;SDS011;59019;47.638;18.966;2023-09-18T07:08:49;17.90;;;10.63;;
71253;SDS011;59019;47.638;18.966;2023-09-18T07:11:15;16.60;;;9.97;;
71253;SDS011;59019;47.638;18.966;2023-09-18T07:13:44;15.65;;;10.70;;
71253;SDS011;59019;47.638;18.966;2023-09-18T07:16:10;14.33;;;10.43;;
71253;SDS011;59019;47.638;18.966;2023-09-18T07:18:36;15.43;;;10.88;;
71253;SDS011;59019;47.638;18.966;2023-09-18T07:21:02;17.35;;;10.82;;
71253;SDS011;59019;47.638;18.966;2023-09-18T07:23:28;15.63;;;10.93;;
71253;SDS011;59019;47.638;18.966;2023-09-18T07:25:53;14.63;;;10.30;;
71253;SDS011;59019;47.638;18.966;2023-09-18T07:28:19;14.00;;;9.50;;
71253;SDS011;59019;47.638;18.966;2023-09-18T07:30:45;14.68;;;9.75;;
71253;SDS011;59019;47.638;18.966;2023-09-18T07:33:11;16.63;;;10.43;;
71253;SDS011;59019;47.638;18.966;2023-09-18T07:35:37;13.13;;;9.13;;
71253;SDS011;59019;47.638;18.966;2023-09-18T07:38:03;15.87;;;9.80;;
71253;SDS011;59019;47.638;18.966;2023-09-18T07:40:30;17.00;;;10.60;;
71253;SDS011;59019;47.638;18.966;2023-09-18T07:42:55;16.13;;;10.50;;
71253;SDS011;59019;47.638;18.966;2023-09-18T07:45:23;15.75;;;10.40;;
71253;SDS011;59019;47.638;18.966;2023-09-18T07:47:49;15.93;;;10.90;;
71253;SDS011;59019;47.638;18.966;2023-09-18T07:50:14;14.83;;;10.27;;
71253;SDS011;59019;47.638;18.966;2023-09-18T07:52:40;14.67;;;10.23;;
71253;SDS011;59019;47.638;18.966;2023-09-18T07:55:06;16.92;;;12.35;;
71253;SDS011;59019;47.638;18.966;2023-09-18T07:57:32;13.33;;;9.47;;
71253;SDS011;59019;47.638;18.966;2023-09-18T07:59:59;13.63;;;9.40;;
71253;SDS011;59019;47.638;18.966;2023-09-18T08:02:32;12.23;;;9.32;;
71253;SDS011;59019;47.638;18.966;2023-09-18T08:04:57;12.70;;;8.83;;
71253;SDS011;59019;47.638;18.966;2023-09-18T08:07:23;12.13;;;8.70;;
71253;SDS011;59019;47.638;18.966;2023-09-18T08:09:48;13.30;;;9.10;;
71253;SDS011;59019;47.638;18.966;2023-09-18T08:12:14;12.45;;;9.23;;
71253;SDS011;59019;47.638;18.966;2023-09-18T08:14:39;14.33;;;9.57;;
71253;SDS011;59019;47.638;18.966;2023-09-18T08:17:05;12.87;;;8.33;;
71253;SDS011;59019;47.638;18.966;2023-09-18T08:19:32;12.65;;;8.30;;
71253;SDS011;59019;47.638;18.966;2023-09-18T08:21:58;13.53;;;8.77;;
71253;SDS011;59019;47.638;18.966;2023-09-18T08:24:29;13.90;;;9.10;;
71253;SDS011;59019;47.638;18.966;2023-09-18T08:26:54;13.80;;;9.13;;
71253;SDS011;59019;47.638;18.966;2023-09-18T08:29:21;11.18;;;8.30;;
71253;SDS011;59019;47.638;18.966;2023-09-18T08:31:47;12.80;;;8.15;;
71253;SDS011;59019;47.638;18.966;2023-09-18T08:34:13;12.38;;;8.90;;
71253;SDS011;59019;47.638;18.966;2023-09-18T08:36:39;12.55;;;8.63;;
71253;SDS011;59019;47.638;18.966;2023-09-18T08:39:05;13.00;;;8.80;;
71253;SDS011;59019;47.638;18.966;2023-09-18T08:41:35;13.27;;;8.60;;
71253;SDS011;59019;47.638;18.966;2023-09-18T08:44:07;12.80;;;8.23;;
71253;SDS011;59019;47.638;18.966;2023-09-18T08:46:38;12.63;;;8.40;;
71253;SDS011;59019;47.638;18.966;2023-09-18T08:49:04;13.05;;;8.05;;
71253;SDS011;59019;47.638;18.966;2023-09-18T08:51:30;12.43;;;8.50;;
71253;SDS011;59019;47.638;18.966;2023-09-18T08:53:57;12.20;;;8.55;;
71253;SDS011;59019;47.638;18.966;2023-09-18T08:56:23;13.15;;;8.63;;
71253;SDS011;59019;47.638;18.966;2023-09-18T08:58:49;10.50;;;8.02;;
71253;SDS011;59019;47.638;18.966;2023-09-18T09:01:15;11.95;;;8.05;;
71253;SDS011;59019;47.638;18.966;2023-09-18T09:03:40;11.17;;;7.90;;
71253;SDS011;59019;47.638;18.966;2023-09-18T09:06:10;12.60;;;8.10;;
71253;SDS011;59019;47.638;18.966;2023-09-18T09:08:37;11.52;;;7.80;;
71253;SDS011;59019;47.638;18.966;2023-09-18T09:11:04;12.47;;;8.07;;
71253;SDS011;59019;47.638;18.966;2023-09-18T09:13:30;11.35;;;7.90;;
71253;SDS011;59019;47.638;18.966;2023-09-18T09:15:59;10.00;;;7.60;;
71253;SDS011;59019;47.638;18.966;2023-09-18T09:18:28;9.95;;;7.60;;
71253;SDS011;59019;47.638;18.966;2023-09-18T09:21:02;11.43;;;8.50;;
71253;SDS011;59019;47.638;18.966;2023-09-18T09:23:44;10.93;;;7.95;;
71253;SDS011;59019;47.638;18.966;2023-09-18T09:26:15;11.37;;;7.90;;
71253;SDS011;59019;47.638;18.966;2023-09-18T09:28:42;10.10;;;7.70;;
71253;SDS011;59019;47.638;18.966;2023-09-18T09:31:09;9.32;;;7.40;;
71253;SDS011;59019;47.638;18.966;2023-09-18T09:33:40;12.37;;;8.83;;
71253;SDS011;59019;47.638;18.966;2023-09-18T09:36:18;10.87;;;7.70;;
71253;SDS011;59019;47.638;18.966;2023-09-18T09:38:47;11.23;;;7.80;;
71253;SDS011;59019;47.638;18.966;2023-09-18T09:41:15;11.83;;;7.80;;
71253;SDS011;59019;47.638;18.966;2023-09-18T09:43:42;10.67;;;7.90;;
71253;SDS011;59019;47.638;18.966;2023-09-18T09:46:16;9.37;;;7.43;;
71253;SDS011;59019;47.638;18.966;2023-09-18T09:48:59;9.55;;;7.60;;
71253;SDS011;59019;47.638;18.966;2023-09-18T09:51:30;12.50;;;7.80;;
71253;SDS011;59019;47.638;18.966;2023-09-18T09:53:56;9.05;;;7.10;;
71253;SDS011;59019;47.638;18.966;2023-09-18T09:56:39;12.48;;;7.60;;
71253;SDS011;59019;47.638;18.966;2023-09-18T09:59:08;11.82;;;7.90;;
71253;SDS011;59019;47.638;18.966;2023-09-18T10:01:34;10.82;;;8.63;;
71253;SDS011;59019;47.638;18.966;2023-09-18T10:04:24;10.55;;;8.23;;
71253;SDS011;59019;47.638;18.966;2023-09-18T10:06:52;11.35;;;7.90;;
71253;SDS011;59019;47.638;18.966;2023-09-18T10:09:21;9.60;;;7.80;;
71253;SDS011;59019;47.638;18.966;2023-09-18T10:11:52;9.47;;;7.60;;
71253;SDS011;59019;47.638;18.966;2023-09-18T10:14:21;10.25;;;7.78;;
71253;SDS011;59019;47.638;18.966;2023-09-18T10:16:54;9.93;;;7.38;;
71253;SDS011;59019;47.638;18.966;2023-09-18T10:19:27;11.43;;;7.57;;
71253;SDS011;59019;47.638;18.966;2023-09-18T10:22:07;10.30;;;8.20;;
71253;SDS011;59019;47.638;18.966;2023-09-18T10:24:59;11.77;;;7.97;;
71253;SDS011;59019;47.638;18.966;2023-09-18T10:27:35;10.85;;;7.65;;
71253;SDS011;59019;47.638;18.966;2023-09-18T10:30:06;12.45;;;7.97;;
71253;SDS011;59019;47.638;18.966;2023-09-18T10:32:37;11.32;;;7.90;;
71253;SDS011;59019;47.638;18.966;2023-09-18T10:35:05;10.23;;;7.78;;
71253;SDS011;59019;47.638;18.966;2023-09-18T10:37:32;10.43;;;7.60;;
71253;SDS011;59019;47.638;18.966;2023-09-18T10:40:00;11.60;;;8.05;;
71253;SDS011;59019;47.638;18.966;2023-09-18T10:42:26;11.47;;;8.17;;
71253;SDS011;59019;47.638;18.966;2023-09-18T10:44:53;10.38;;;7.40;;
71253;SDS011;59019;47.638;18.966;2023-09-18T10:47:19;12.52;;;7.80;;
71253;SDS011;59019;47.638;18.966;2023-09-18T10:49:45;11.25;;;7.90;;
71253;SDS011;59019;47.638;18.966;2023-09-18T10:52:11;11.33;;;8.10;;
71253;SDS011;59019;47.638;18.966;2023-09-18T10:54:40;10.40;;;7.72;;
71253;SDS011;59019;47.638;18.966;2023-09-18T10:57:06;12.00;;;8.55;;
71253;SDS011;59019;47.638;18.966;2023-09-18T10:59:32;11.63;;;8.37;;
71253;SDS011;59019;47.638;18.966;2023-09-18T11:02:04;9.33;;;7.43;;
71253;SDS011;59019;47.638;18.966;2023-09-18T11:04:30;11.07;;;8.23;;
71253;SDS011;59019;47.638;18.966;2023-09-18T11:07:03;10.40;;;8.23;;
71253;SDS011;59019;47.638;18.966;2023-09-18T11:09:31;12.45;;;8.40;;
71253;SDS011;59019;47.638;18.966;2023-09-18T11:14:41;9.68;;;7.68;;
71253;SDS011;59019;47.638;18.966;2023-09-18T11:17:29;11.27;;;8.70;;
71253;SDS011;59019;47.638;18.966;2023-09-18T11:22:46;12.77;;;8.35;;
71253;SDS011;59019;47.638;18.966;2023-09-18T11:28:23;12.85;;;8.63;;
71253;SDS011;59019;47.638;18.966;2023-09-18T11:30:50;11.37;;;8.80;;
71253;SDS011;59019;47.638;18.966;2023-09-18T11:33:31;11.30;;;8.65;;
71253;SDS011;59019;47.638;18.966;2023-09-18T11:35:57;11.37;;;8.40;;
71253;SDS011;59019;47.638;18.966;2023-09-18T11:38:28;12.30;;;8.85;;
71253;SDS011;59019;47.638;18.966;2023-09-18T11:40:54;13.77;;;9.10;;
71253;SDS011;59019;47.638;18.966;2023-09-18T11:43:23;11.75;;;8.43;;
71253;SDS011;59019;47.638;18.966;2023-09-18T11:45:55;12.10;;;8.88;;
71253;SDS011;59019;47.638;18.966;2023-09-18T11:48:23;11.40;;;8.85;;
71253;SDS011;59019;47.638;18.966;2023-09-18T11:50:52;11.10;;;8.85;;
71253;SDS011;59019;47.638;18.966;2023-09-18T11:53:19;13.00;;;8.80;;
71253;SDS011;59019;47.638;18.966;2023-09-18T11:55:45;10.95;;;8.90;;
71253;SDS011;59019;47.638;18.966;2023-09-18T11:58:15;12.70;;;9.80;;
71253;SDS011;59019;47.638;18.966;2023-09-18T12:00:41;10.93;;;8.90;;
71253;SDS011;59019;47.638;18.966;2023-09-18T12:03:19;11.40;;;9.18;;
71253;SDS011;59019;47.638;18.966;2023-09-18T12:05:52;11.90;;;9.13;;
71253;SDS011;59019;47.638;18.966;2023-09-18T12:08:20;11.67;;;9.20;;
71253;SDS011;59019;47.638;18.966;2023-09-18T12:10:50;10.18;;;8.65;;
71253;SDS011;59019;47.638;18.966;2023-09-18T12:13:19;11.98;;;9.25;;
71253;SDS011;59019;47.638;18.966;2023-09-18T12:15:45;11.90;;;9.47;;
71253;SDS011;59019;47.638;18.966;2023-09-18T12:18:13;11.70;;;9.70;;
71253;SDS011;59019;47.638;18.966;2023-09-18T12:20:49;11.85;;;9.80;;
71253;SDS011;59019;47.638;18.966;2023-09-18T12:23:16;13.23;;;9.43;;
71253;SDS011;59019;47.638;18.966;2023-09-18T12:25:47;14.50;;;9.35;;
71253;SDS011;59019;47.638;18.966;2023-09-18T12:28:15;13.02;;;9.32;;
71253;SDS011;59019;47.638;18.966;2023-09-18T12:30:44;11.73;;;9.10;;
71253;SDS011;59019;47.638;18.966;2023-09-18T12:33:12;11.83;;;9.40;;
71253;SDS011;59019;47.638;18.966;2023-09-18T12:35:40;13.03;;;9.63;;
71253;SDS011;59019;47.638;18.966;2023-09-18T12:38:15;11.70;;;8.73;;
71253;SDS011;59019;47.638;18.966;2023-09-18T12:40:45;10.68;;;8.82;;
71253;SDS011;59019;47.638;18.966;2023-09-18T12:43:11;10.63;;;8.43;;
71253;SDS011;59019;47.638;18.966;2023-09-18T12:45:40;11.65;;;9.18;;
71253;SDS011;59019;47.638;18.966;2023-09-18T12:48:06;13.15;;;9.30;;
71253;SDS011;59019;47.638;18.966;2023-09-18T12:50:32;11.07;;;8.33;;
71253;SDS011;59019;47.638;18.966;2023-09-18T12:53:14;13.73;;;9.32;;
71253;SDS011;59019;47.638;18.966;2023-09-18T12:55:41;12.45;;;8.35;;
71253;SDS011;59019;47.638;18.966;2023-09-18T12:58:10;10.82;;;8.48;;
71253;SDS011;59019;47.638;18.966;2023-09-18T13:00:37;11.60;;;8.35;;
71253;SDS011;59019;47.638;18.966;2023-09-18T13:03:11;11.23;;;8.65;;
71253;SDS011;59019;47.638;18.966;2023-09-18T13:05:38;11.15;;;8.73;;
71253;SDS011;59019;47.638;18.966;2023-09-18T13:08:04;13.83;;;8.63;;
71253;SDS011;59019;47.638;18.966;2023-09-18T13:10:43;13.07;;;8.60;;
71253;SDS011;59019;47.638;18.966;2023-09-18T13:13:18;12.83;;;9.00;;
71253;SDS011;59019;47.638;18.966;2023-09-18T13:15:45;10.23;;;8.60;;
71253;SDS011;59019;47.638;18.966;2023-09-18T13:18:12;12.57;;;8.80;;
71253;SDS011;59019;47.638;18.966;2023-09-18T13:20:39;11.48;;;8.80;;
71253;SDS011;59019;47.638;18.966;2023-09-18T13:23:10;12.75;;;9.00;;
71253;SDS011;59019;47.638;18.966;2023-09-18T13:25:37;12.40;;;8.90;;
71253;SDS011;59019;47.638;18.966;2023-09-18T13:28:05;11.60;;;8.60;;
71253;SDS011;59019;47.638;18.966;2023-09-18T13:30:33;12.65;;;8.60;;
71253;SDS011;59019;47.638;18.966;2023-09-18T13:33:04;10.95;;;8.35;;
71253;SDS011;59019;47.638;18.966;2023-09-18T13:35:37;13.70;;;8.70;;
71253;SDS011;59019;47.638;18.966;2023-09-18T13:38:11;10.98;;;8.40;;
71253;SDS011;59019;47.638;18.966;2023-09-18T13:40:38;10.10;;;8.30;;
71253;SDS011;59019;47.638;18.966;2023-09-18T13:43:04;9.95;;;8.25;;
71253;SDS011;59019;47.638;18.966;2023-09-18T13:45:31;11.23;;;8.45;;
71253;SDS011;59019;47.638;18.966;2023-09-18T13:48:00;10.98;;;8.60;;
71253;SDS011;59019;47.638;18.966;2023-09-18T13:50:26;11.23;;;8.52;;
71253;SDS011;59019;47.638;18.966;2023-09-18T13:52:52;11.13;;;8.10;;
71253;SDS011;59019;47.638;18.966;2023-09-18T13:55:19;11.20;;;8.43;;
71253;SDS011;59019;47.638;18.966;2023-09-18T13:57:44;10.73;;;8.45;;
71253;SDS011;59019;47.638;18.966;2023-09-18T14:00:10;10.80;;;8.27;;
71253;SDS011;59019;47.638;18.966;2023-09-18T14:02:37;12.20;;;8.85;;
71253;SDS011;59019;47.638;18.966;2023-09-18T14:05:06;13.95;;;8.70;;
71253;SDS011;59019;47.638;18.966;2023-09-18T14:07:33;10.45;;;8.65;;
71253;SDS011;59019;47.638;18.966;2023-09-18T14:09:58;11.47;;;8.20;;
71253;SDS011;59019;47.638;18.966;2023-09-18T14:12:28;13.00;;;8.80;;
71253;SDS011;59019;47.638;18.966;2023-09-18T14:14:55;12.55;;;8.30;;
71253;SDS011;59019;47.638;18.966;2023-09-18T14:17:21;12.90;;;8.67;;
71253;SDS011;59019;47.638;18.966;2023-09-18T14:19:47;11.93;;;8.57;;
71253;SDS011;59019;47.638;18.966;2023-09-18T14:22:12;10.57;;;8.48;;
71253;SDS011;59019;47.638;18.966;2023-09-18T14:24:41;11.70;;;8.67;;
71253;SDS011;59019;47.638;18.966;2023-09-18T14:27:07;12.90;;;8.60;;